Map

Track Data

SID SEASON NUMBER BASIN SUBBASIN NAME ISO_TIME NATURE LAT LON WMO_WIND WMO_PRES WMO_AGENCY TRACK_TYPE DIST2LAND LANDFALL IFLAG USA_AGENCY USA_ATCF_ID USA_LAT USA_LON USA_RECORD USA_STATUS USA_WIND USA_PRES USA_SSHS USA_R34_NE USA_R34_SE USA_R34_SW USA_R34_NW USA_R50_NE USA_R50_SE USA_R50_SW USA_R50_NW USA_R64_NE USA_R64_SE USA_R64_SW USA_R64_NW USA_POCI USA_ROCI USA_RMW USA_EYE TOKYO_LAT TOKYO_LON TOKYO_GRADE TOKYO_WIND TOKYO_PRES TOKYO_R50_DIR TOKYO_R50_LONG TOKYO_R50_SHORT TOKYO_R30_DIR TOKYO_R30_LONG TOKYO_R30_SHORT TOKYO_LAND CMA_LAT CMA_LON CMA_CAT CMA_WIND CMA_PRES HKO_LAT HKO_LON HKO_CAT HKO_WIND HKO_PRES NEWDELHI_LAT NEWDELHI_LON NEWDELHI_GRADE NEWDELHI_WIND NEWDELHI_PRES NEWDELHI_CI NEWDELHI_DP NEWDELHI_POCI REUNION_LAT REUNION_LON REUNION_TYPE REUNION_WIND REUNION_PRES REUNION_TNUM REUNION_CI REUNION_RMW REUNION_R34_NE REUNION_R34_SE REUNION_R34_SW REUNION_R34_NW REUNION_R50_NE REUNION_R50_SE REUNION_R50_SW REUNION_R50_NW REUNION_R64_NE REUNION_R64_SE REUNION_R64_SW REUNION_R64_NW BOM_LAT BOM_LON BOM_TYPE BOM_WIND BOM_PRES BOM_TNUM BOM_CI BOM_RMW BOM_R34_NE BOM_R34_SE BOM_R34_SW BOM_R34_NW BOM_R50_NE BOM_R50_SE BOM_R50_SW BOM_R50_NW BOM_R64_NE BOM_R64_SE BOM_R64_SW BOM_R64_NW BOM_ROCI BOM_POCI BOM_EYE BOM_POS_METHOD BOM_PRES_METHOD NADI_LAT NADI_LON NADI_CAT NADI_WIND NADI_PRES WELLINGTON_LAT WELLINGTON_LON WELLINGTON_WIND WELLINGTON_PRES DS824_LAT DS824_LON DS824_STAGE DS824_WIND DS824_PRES TD9636_LAT TD9636_LON TD9636_STAGE TD9636_WIND TD9636_PRES TD9635_LAT TD9635_LON TD9635_WIND TD9635_PRES TD9635_ROCI NEUMANN_LAT NEUMANN_LON NEUMANN_CLASS NEUMANN_WIND NEUMANN_PRES MLC_LAT MLC_LON MLC_CLASS MLC_WIND MLC_PRES USA_GUST BOM_GUST BOM_GUST_PER REUNION_GUST REUNION_GUST_PER USA_SEAHGT USA_SEARAD_NE USA_SEARAD_SE USA_SEARAD_SW USA_SEARAD_NW STORM_SPEED STORM_DIR
1929219N21090 1929 48 NI BB NOT_NAMED 1929-08-07 00:00:00 TS 21.0000 90.2000 main 89 89 _________O____ -1 21.0000 90.2000 TC 30 1 298
1929219N21090 1929 48 NI BB NOT_NAMED 1929-08-07 03:00:00 TS 21.0267 90.1333 main 89 78 _________PO___ -1 21.0400 90.1000 TC 30 21.0000 90.2000 1 2 300
1929219N21090 1929 48 NI BB NOT_NAMED 1929-08-07 06:00:00 TS 21.0875 90.0351 main 78 67 _________OP___ -1 21.1000 90.0000 TC 30 21.0689 90.0876 1 2 308
1929219N21090 1929 48 NI BB NOT_NAMED 1929-08-07 09:00:00 TS 21.1700 89.9343 main 67 55 _________PP___ -1 21.1925 89.9000 TC 30 21.1401 89.9801 1 2 313
1929219N21090 1929 48 NI BB NOT_NAMED 1929-08-07 12:00:00 TS 21.2582 89.8413 main 55 55 _________OP___ -1 21.3000 89.8000 TC 30 21.2163 89.8826 1 3 315
1929219N21090 1929 48 NI BB NOT_NAMED 1929-08-07 15:00:00 TS 21.3500 89.7463 main 44 44 _________PO___ -1 21.4000 89.6925 TC 30 21.3000 89.8000 1 2 319
1929219N21090 1929 48 NI BB NOT_NAMED 1929-08-07 18:00:00 TS 21.4464 89.6670 main 44 30 _________OP___ -1 21.5000 89.6000 TC 30 21.3927 89.7340 1 2 327
1929219N21090 1929 48 NI BB NOT_NAMED 1929-08-07 21:00:00 TS 21.5462 89.6149 main 30 23 _________PP___ -1 21.6000 89.5574 TC 30 21.4923 89.6723 1 2 331
1929219N21090 1929 48 NI BB NOT_NAMED 1929-08-08 00:00:00 TS 21.6479 89.5498 main 15 0 _________OP___ -1 21.7000 89.5000 TC 30 21.5958 89.5996 1 3 320
1929219N21090 1929 48 NI BB NOT_NAMED 1929-08-08 03:00:00 TS 21.7500 89.4362 main 0 0 _________PO___ -1 21.8000 89.3725 TC 30 21.7000 89.5000 1 3 308
1929219N21090 1929 48 NI BB NOT_NAMED 1929-08-08 06:00:00 TS 21.8460 89.2768 main 0 0 _________OP___ -1 21.9000 89.2000 TC 30 21.7919 89.3537 1 4 300
1929219N21090 1929 48 NI BB NOT_NAMED 1929-08-08 09:00:00 TS 21.9388 89.0899 main 0 0 _________PP___ -1 21.9925 89.0000 TC 30 21.8851 89.1799 1 4 299
1929219N21090 1929 48 NI BB NOT_NAMED 1929-08-08 12:00:00 TS 22.0428 88.8956 main 0 0 _________OP___ -1 22.1000 88.8000 TC 30 21.9857 88.9912 1 4 304
1929219N21090 1929 48 NI BB NOT_NAMED 1929-08-08 15:00:00 TS 22.1712 88.7250 main 0 0 _________PO___ -1 22.2424 88.6499 TC 30 22.1000 88.8000 1 4 313
1929219N21090 1929 48 NI BB NOT_NAMED 1929-08-08 18:00:00 TS 22.3259 88.5605 main 0 0 _________OP___ -1 22.4000 88.5000 TC 30 22.2519 88.6211 1 5 314
1929219N21090 1929 48 NI BB NOT_NAMED 1929-08-08 21:00:00 TS 22.4900 88.3714 main 0 0 _________PP___ -1 22.5650 88.3001 TC 30 22.4150 88.4427 1 5 312
1929219N21090 1929 48 NI BB NOT_NAMED 1929-08-09 00:00:00 TS 22.6353 88.1840 main 0 0 _________OP___ -1 22.7000 88.1000 TC 30 22.5706 88.2680 1 4 307
1929219N21090 1929 48 NI BB NOT_NAMED 1929-08-09 03:00:00 TS 22.7325 88.0212 main 0 0 _________PO___ -1 22.7650 87.9424 TC 30 22.7000 88.1000 1 3 298
1929219N21090 1929 48 NI BB NOT_NAMED 1929-08-09 06:00:00 TS 22.7893 87.8713 main 0 0 _________OP___ -1 22.8000 87.8000 TC 30 22.7787 87.9426 1 3 291
1929219N21090 1929 48 NI BB NOT_NAMED 1929-08-09 09:00:00 TS 22.8399 87.7211 main 0 0 _________PP___ -1 22.8500 87.6500 TC 30 22.8299 87.7922 1 3 289
1929219N21090 1929 48 NI BB NOT_NAMED 1929-08-09 12:00:00 TS 22.8831 87.5729 main 0 0 _________OP___ -1 22.9000 87.5000 TC 30 22.8662 87.6458 1 3 287
1929219N21090 1929 48 NI BB NOT_NAMED 1929-08-09 15:00:00 TS 22.9250 87.4250 main 0 0 _________PO___ -1 22.9500 87.3500 TC 30 22.9000 87.5000 1 3 288
1929219N21090 1929 48 NI BB NOT_NAMED 1929-08-09 18:00:00 TS 22.9750 87.2709 main 0 0 _________OP___ -1 23.0000 87.2000 TC 30 22.9500 87.3419 1 3 289
1929219N21090 1929 48 NI BB NOT_NAMED 1929-08-09 21:00:00 TS 23.0250 87.1137 main 0 0 _________PP___ -1 23.0500 87.0425 TC 30 23.0000 87.1850 1 3 290
1929219N21090 1929 48 NI BB NOT_NAMED 1929-08-10 00:00:00 TS 23.0750 86.9678 main 0 0 _________OP___ -1 23.1000 86.9000 TC 30 23.0500 87.0356 1 3 292
1929219N21090 1929 48 NI BB NOT_NAMED 1929-08-10 03:00:00 TS 23.1250 86.8462 main 0 0 _________PO___ -1 23.1500 86.7925 TC 30 23.1000 86.9000 1 2 296
1929219N21090 1929 48 NI BB NOT_NAMED 1929-08-10 06:00:00 TS 23.1750 86.7428 main 0 0 _________OP___ -1 23.2000 86.7000 TC 30 23.1499 86.7856 1 2 299
1929219N21090 1929 48 NI BB NOT_NAMED 1929-08-10 09:00:00 TS 23.2250 86.6425 main 0 0 _________PP___ -1 23.2500 86.6000 TC 30 23.1999 86.6849 1 2 299
1929219N21090 1929 48 NI BB NOT_NAMED 1929-08-10 12:00:00 TS 23.2750 86.5459 main 0 0 _________OP___ -1 23.3000 86.5000 TC 30 23.2499 86.5918 1 2 300
1929219N21090 1929 48 NI BB NOT_NAMED 1929-08-10 15:00:00 TS 23.3250 86.4500 main 0 0 _________PO___ -1 23.3500 86.4000 TC 30 23.3000 86.5000 1 2 299
1929219N21090 1929 48 NI BB NOT_NAMED 1929-08-10 18:00:00 TS 23.3715 86.3597 main 0 0 _________OP___ -1 23.4000 86.3000 TC 30 23.3501 86.4044 1 2 299
1929219N21090 1929 48 NI BB NOT_NAMED 1929-08-10 21:00:00 TS 23.4201 86.2630 main 0 0 _________PP___ -1 23.4500 86.2000 TC 30 23.4001 86.3051 1 2 298
1929219N21090 1929 48 NI BB NOT_NAMED 1929-08-11 00:00:00 TS 23.4667 86.1688 main 0 0 _________OP___ -1 23.5000 86.1000 TC 30 23.4501 86.2032 1 2 298
1929219N21090 1929 48 NI BB NOT_NAMED 1929-08-11 03:00:00 NR 23.5000 86.1000 main 0 __________O___ -1 TC 23.5000 86.1000 1 1 295

About IBTrACS Database

This database is a web-friendly format of International Best Track Archive for Climate Stewardship (IBTrACS), a global best track data archive curated by NOAA dating back to 1842.

Updated: 2021-10-19